createdAt,value
2022-10-16T00:01:37.516Z,1.43
2022-10-16T00:04:05.054Z,2.20
2022-10-16T00:06:34.683Z,1.10
2022-10-16T00:09:05.016Z,1.67
2022-10-16T00:11:34.755Z,1.80
2022-10-16T00:14:04.700Z,0.50
2022-10-16T00:16:32.640Z,0.77
2022-10-16T00:19:02.310Z,0.60
2022-10-16T00:21:30.966Z,0.77
2022-10-16T00:24:05.339Z,1.07
2022-10-16T00:26:34.623Z,1.37
2022-10-16T00:29:02.013Z,3.20
2022-10-16T00:31:29.743Z,3.17
2022-10-16T00:33:59.325Z,2.63
2022-10-16T00:36:27.347Z,1.67
2022-10-16T00:38:56.921Z,2.40
2022-10-16T00:41:26.250Z,1.20
2022-10-16T00:43:59.129Z,0.83
2022-10-16T00:46:46.491Z,1.07
2022-10-16T00:49:17.993Z,1.30
2022-10-16T00:51:54.548Z,1.43
2022-10-16T00:54:24.700Z,1.00
2022-10-16T00:56:52.570Z,1.73
2022-10-16T00:59:25.732Z,0.50
2022-10-16T01:01:54.075Z,0.80
2022-10-16T01:04:22.215Z,0.67
2022-10-16T01:06:59.250Z,1.33
2022-10-16T01:09:53.652Z,0.67
2022-10-16T01:12:38.655Z,0.60
2022-10-16T01:15:27.708Z,0.80
2022-10-16T01:17:59.118Z,0.60
2022-10-16T01:20:31.645Z,0.57
2022-10-16T01:23:05.154Z,1.07
2022-10-16T01:26:03.964Z,0.80
2022-10-16T01:28:42.733Z,0.87
2022-10-16T01:31:12.295Z,1.47
2022-10-16T01:33:57.183Z,0.80
2022-10-16T01:36:32.041Z,0.80
2022-10-16T01:39:02.367Z,1.00
2022-10-16T01:41:52.983Z,1.50
2022-10-16T01:44:47.385Z,1.43
2022-10-16T01:47:18.240Z,0.77
2022-10-16T01:49:46.989Z,0.97
2022-10-16T01:52:18.592Z,0.97
2022-10-16T01:54:49.909Z,0.77
2022-10-16T01:57:19.042Z,0.70
2022-10-16T01:59:50.276Z,1.20
2022-10-16T02:02:19.478Z,1.07
2022-10-16T02:05:05.044Z,1.43
2022-10-16T02:07:34.741Z,1.50
2022-10-16T02:10:02.418Z,0.80
2022-10-16T02:12:33.945Z,1.53
2022-10-16T02:15:01.188Z,0.63
2022-10-16T02:17:31.008Z,2.00
2022-10-16T02:19:59.768Z,1.13
2022-10-16T02:22:41.945Z,0.93
2022-10-16T02:25:23.037Z,1.43
2022-10-16T02:28:02.789Z,1.93
2022-10-16T02:30:49.164Z,1.50
2022-10-16T02:33:18.659Z,1.13
2022-10-16T02:35:48.542Z,2.53
2022-10-16T02:38:17.306Z,2.00
2022-10-16T02:40:47.444Z,1.07
2022-10-16T02:43:17.496Z,2.27
2022-10-16T02:45:46.933Z,1.30
2022-10-16T02:48:14.149Z,2.57
2022-10-16T02:50:41.309Z,1.17
2022-10-16T02:53:08.556Z,1.20
2022-10-16T02:55:35.694Z,1.50
2022-10-16T02:58:03.011Z,0.80
2022-10-16T03:00:30.264Z,1.03
2022-10-16T03:02:57.524Z,0.80
2022-10-16T03:05:24.676Z,2.33
2022-10-16T03:07:53.522Z,3.13
2022-10-16T03:10:20.783Z,2.27
2022-10-16T03:12:47.874Z,1.03
2022-10-16T03:15:15.147Z,1.43
2022-10-16T03:17:42.341Z,1.00
2022-10-16T03:20:09.893Z,1.33
2022-10-16T03:22:37.128Z,1.30
2022-10-16T03:25:04.613Z,2.10
2022-10-16T03:27:33.847Z,2.70
2022-10-16T03:30:01.065Z,1.10
2022-10-16T03:32:29.618Z,1.20
2022-10-16T03:34:58.027Z,1.97
2022-10-16T03:37:27.612Z,2.13
2022-10-16T03:39:55.058Z,1.90
2022-10-16T03:42:25.454Z,2.13
2022-10-16T03:44:54.716Z,2.93
2022-10-16T03:47:24.607Z,4.00
2022-10-16T03:49:52.143Z,1.57
2022-10-16T03:54:51.435Z,1.27
2022-10-16T03:57:19.128Z,0.93
2022-10-16T03:59:46.430Z,1.90
2022-10-16T04:02:13.908Z,1.70
2022-10-16T04:04:43.439Z,1.13
2022-10-16T04:07:10.704Z,2.73
2022-10-16T04:09:37.818Z,2.43
2022-10-16T04:12:07.062Z,1.90
2022-10-16T04:14:34.302Z,2.87
2022-10-16T04:17:01.429Z,3.00
2022-10-16T04:19:28.755Z,1.07
2022-10-16T04:21:55.983Z,1.63
2022-10-16T04:24:23.299Z,1.20
2022-10-16T04:26:52.819Z,3.17
2022-10-16T04:29:22.384Z,1.17
2022-10-16T04:31:50.180Z,1.20
2022-10-16T04:34:17.373Z,1.83
2022-10-16T04:36:47.660Z,3.80
2022-10-16T04:39:14.872Z,1.43
2022-10-16T04:41:42.134Z,2.17
2022-10-16T04:44:09.285Z,2.50
2022-10-16T04:46:36.616Z,3.13
2022-10-16T04:49:03.914Z,2.70
2022-10-16T04:51:31.035Z,1.60
2022-10-16T04:54:00.703Z,1.23
2022-10-16T04:56:27.877Z,1.80
2022-10-16T04:58:55.059Z,4.23
2022-10-16T05:01:22.255Z,2.23
2022-10-16T05:03:49.882Z,1.60
2022-10-16T05:06:17.125Z,2.10
2022-10-16T05:08:44.337Z,4.20
2022-10-16T05:11:11.485Z,1.10
2022-10-16T05:13:38.698Z,2.83
2022-10-16T05:16:08.656Z,1.67
2022-10-16T05:18:35.853Z,1.47
2022-10-16T05:21:03.100Z,1.97
2022-10-16T05:23:32.786Z,1.80
2022-10-16T05:26:00.610Z,1.33
2022-10-16T05:28:31.267Z,1.43
2022-10-16T05:30:58.718Z,2.63
2022-10-16T05:33:27.900Z,1.83
2022-10-16T05:35:55.143Z,2.67
2022-10-16T05:38:22.380Z,2.37
2022-10-16T05:40:53.841Z,3.63
2022-10-16T05:43:21.666Z,1.70
2022-10-16T05:45:59.720Z,1.47
2022-10-16T05:48:27.515Z,1.13
2022-10-16T05:51:05.686Z,3.70
2022-10-16T05:53:34.962Z,2.30
2022-10-16T05:56:02.605Z,2.87
2022-10-16T05:58:36.625Z,1.97
2022-10-16T06:01:11.593Z,1.50
2022-10-16T06:03:41.677Z,5.90
2022-10-16T06:06:20.599Z,1.37
2022-10-16T06:08:48.935Z,4.23
2022-10-16T06:11:19.284Z,2.07
2022-10-16T06:13:51.433Z,2.77
2022-10-16T06:16:18.818Z,3.00
2022-10-16T06:18:47.792Z,2.13
2022-10-16T06:21:20.370Z,2.93
2022-10-16T06:23:50.302Z,4.67
2022-10-16T06:26:22.176Z,2.73
2022-10-16T06:28:50.115Z,4.07
2022-10-16T06:31:19.132Z,2.10
2022-10-16T06:33:49.295Z,3.10
2022-10-16T06:36:21.167Z,3.00
2022-10-16T06:38:48.321Z,2.60
2022-10-16T06:41:18.481Z,2.33
2022-10-16T06:43:46.495Z,2.63
2022-10-16T06:46:15.955Z,4.03
2022-10-16T06:48:43.499Z,5.00
2022-10-16T06:51:16.843Z,2.77
2022-10-16T06:54:02.752Z,2.37
2022-10-16T06:56:32.467Z,2.20
2022-10-16T06:59:00.407Z,2.23
2022-10-16T07:01:30.692Z,2.90
2022-10-16T07:04:01.989Z,2.57
2022-10-16T07:06:33.117Z,2.30
2022-10-16T07:09:03.450Z,4.87
2022-10-16T07:11:30.657Z,1.37
2022-10-16T07:13:58.023Z,2.77
2022-10-16T07:16:28.182Z,1.40
2022-10-16T07:19:00.682Z,2.27
2022-10-16T07:21:31.280Z,2.97
2022-10-16T07:24:02.251Z,2.13
2022-10-16T07:26:33.751Z,3.67
2022-10-16T07:29:01.791Z,4.53
2022-10-16T07:31:29.477Z,5.13
2022-10-16T07:33:58.943Z,1.83
2022-10-16T07:36:28.948Z,2.53
2022-10-16T07:38:58.953Z,2.60
2022-10-16T07:41:31.077Z,2.47
2022-10-16T07:44:01.237Z,2.90
2022-10-16T07:46:31.917Z,4.07
2022-10-16T07:48:59.185Z,2.00
2022-10-16T07:51:27.019Z,3.13
2022-10-16T07:53:54.740Z,2.27
2022-10-16T07:56:22.432Z,2.63
2022-10-16T07:58:51.227Z,2.70
2022-10-16T08:01:19.354Z,4.80
2022-10-16T08:03:49.164Z,2.00
2022-10-16T08:06:17.755Z,2.53
2022-10-16T08:08:48.949Z,2.47
2022-10-16T08:11:16.231Z,3.17
2022-10-16T08:13:45.667Z,2.10
2022-10-16T08:16:13.181Z,2.90
2022-10-16T08:18:41.742Z,2.87
2022-10-16T08:21:20.202Z,3.47
2022-10-16T08:23:54.754Z,2.73
2022-10-16T08:26:25.979Z,2.17
2022-10-16T08:28:53.428Z,2.37
2022-10-16T08:31:21.416Z,6.40
2022-10-16T08:33:48.927Z,3.50
2022-10-16T08:36:17.623Z,2.27
2022-10-16T08:38:44.968Z,3.53
2022-10-16T08:41:33.426Z,2.07
2022-10-16T08:44:34.562Z,4.23
2022-10-16T08:47:25.566Z,2.00
2022-10-16T08:50:10.003Z,1.97
2022-10-16T08:52:43.985Z,1.77
2022-10-16T08:55:38.173Z,3.17
2022-10-16T08:58:19.677Z,3.00
2022-10-16T09:01:13.018Z,2.27
2022-10-16T09:04:14.425Z,1.67
2022-10-16T09:06:53.268Z,2.73
2022-10-16T09:10:05.163Z,2.43
2022-10-16T09:13:03.185Z,4.03
2022-10-16T09:15:34.718Z,3.57
2022-10-16T09:18:30.047Z,1.27
2022-10-16T09:21:28.350Z,1.57
2022-10-16T09:23:59.399Z,5.50
2022-10-16T09:26:26.596Z,2.77
2022-10-16T09:28:54.482Z,2.43
2022-10-16T09:31:23.602Z,3.70
2022-10-16T09:34:07.510Z,3.13
2022-10-16T09:36:42.915Z,7.93
2022-10-16T09:39:15.534Z,1.53
2022-10-16T09:41:45.950Z,3.57
2022-10-16T09:44:35.180Z,2.33
2022-10-16T09:47:13.362Z,1.47
2022-10-16T09:49:56.493Z,1.50
2022-10-16T09:52:24.644Z,4.30
2022-10-16T09:55:13.530Z,4.03
2022-10-16T09:57:55.649Z,4.13
2022-10-16T10:00:25.705Z,2.63
2022-10-16T10:05:28.022Z,1.77
2022-10-16T10:08:00.779Z,3.97
2022-10-16T10:10:29.118Z,2.27
2022-10-16T10:12:57.246Z,1.43
2022-10-16T10:15:25.850Z,3.50
2022-10-16T10:17:55.404Z,2.73
2022-10-16T10:20:26.834Z,4.87
2022-10-16T10:22:57.621Z,3.23
2022-10-16T10:25:46.439Z,3.70
2022-10-16T10:28:45.868Z,2.97
2022-10-16T10:31:26.499Z,6.43
2022-10-16T10:34:22.571Z,2.50
2022-10-16T10:37:12.961Z,3.90
2022-10-16T10:40:01.617Z,2.50
2022-10-16T10:42:43.534Z,2.10
2022-10-16T10:45:47.900Z,2.70
2022-10-16T10:48:23.702Z,3.23
2022-10-16T10:50:57.747Z,2.90
2022-10-16T10:53:30.619Z,2.57
2022-10-16T10:56:07.273Z,1.93
2022-10-16T10:59:21.887Z,4.10
2022-10-16T11:02:00.099Z,4.23
2022-10-16T11:05:05.210Z,3.07
2022-10-16T11:07:41.418Z,3.83
2022-10-16T11:10:21.485Z,2.27
2022-10-16T11:12:59.990Z,3.40
2022-10-16T11:15:37.748Z,2.50
2022-10-16T11:18:27.853Z,0.80
2022-10-16T11:20:59.704Z,2.83
2022-10-16T11:23:33.167Z,1.53
2022-10-16T11:26:09.731Z,1.50
2022-10-16T11:28:43.296Z,5.33
2022-10-16T11:31:20.304Z,4.53
2022-10-16T11:34:30.782Z,1.07
2022-10-16T11:37:06.829Z,2.97
2022-10-16T11:39:34.467Z,1.43
2022-10-16T11:42:14.546Z,2.03
2022-10-16T11:45:06.295Z,1.90
2022-10-16T11:48:00.971Z,5.40
2022-10-16T11:50:44.360Z,3.47
2022-10-16T11:54:00.570Z,2.60
2022-10-16T11:56:29.285Z,2.57
2022-10-16T11:59:08.809Z,2.00
2022-10-16T12:01:47.929Z,1.63
2022-10-16T12:04:34.358Z,3.83
2022-10-16T12:07:12.331Z,4.33
2022-10-16T12:09:41.258Z,2.17
2022-10-16T12:12:40.869Z,3.10
2022-10-16T12:15:40.547Z,3.20
2022-10-16T12:18:23.701Z,1.17
2022-10-16T12:21:06.244Z,2.73
2022-10-16T12:23:38.395Z,2.67
2022-10-16T12:26:06.690Z,2.87
2022-10-16T12:28:34.676Z,2.07
2022-10-16T12:31:06.438Z,3.03
2022-10-16T12:33:36.310Z,2.37
2022-10-16T12:36:08.611Z,2.97
2022-10-16T12:38:53.015Z,1.10
2022-10-16T12:41:38.787Z,1.43
2022-10-16T12:44:05.928Z,3.83
2022-10-16T12:46:38.235Z,2.43
2022-10-16T12:49:14.422Z,2.70
2022-10-16T12:51:43.590Z,2.80
2022-10-16T12:54:31.253Z,6.53
2022-10-16T12:57:07.216Z,1.60
2022-10-16T13:00:10.953Z,1.50
2022-10-16T13:02:49.149Z,4.37
2022-10-16T13:05:41.463Z,2.03
2022-10-16T13:08:42.533Z,2.57
2022-10-16T13:11:44.726Z,3.27
2022-10-16T13:14:37.921Z,2.80
2022-10-16T13:17:32.762Z,1.63
2022-10-16T13:20:02.742Z,1.17
2022-10-16T13:22:57.879Z,2.60
2022-10-16T13:25:25.056Z,4.47
2022-10-16T13:27:57.248Z,1.63
2022-10-16T13:30:31.216Z,3.45
2022-10-16T13:33:23.483Z,1.33
2022-10-16T13:35:56.429Z,1.53
2022-10-16T13:38:34.569Z,1.42
2022-10-16T13:41:07.591Z,2.90
2022-10-16T13:43:42.590Z,2.30
2022-10-16T13:46:14.641Z,4.00
2022-10-16T13:48:42.773Z,3.15
2022-10-16T13:53:58.058Z,2.20
2022-10-16T13:56:32.923Z,2.63
2022-10-16T13:59:36.525Z,4.60
2022-10-16T14:02:23.213Z,4.10
2022-10-16T14:04:53.535Z,2.03
2022-10-16T14:07:29.952Z,1.83
2022-10-16T14:09:59.701Z,1.48
2022-10-16T14:12:30.465Z,2.58
2022-10-16T14:15:00.210Z,3.97
2022-10-16T14:17:30.174Z,2.28
2022-10-16T14:20:02.532Z,1.80
2022-10-16T14:22:41.375Z,2.60
2022-10-16T14:25:20.998Z,1.60
2022-10-16T14:28:18.948Z,2.08
2022-10-16T14:30:58.164Z,3.75
2022-10-16T14:33:31.383Z,2.63
2022-10-16T14:36:06.204Z,0.95
2022-10-16T14:38:34.724Z,3.30
2022-10-16T14:41:05.025Z,2.47
2022-10-16T14:43:41.159Z,2.67
2022-10-16T14:46:15.118Z,2.53
2022-10-16T14:48:48.641Z,3.20
2022-10-16T14:51:17.809Z,3.22
2022-10-16T14:53:45.042Z,3.05
2022-10-16T14:56:25.659Z,1.80
2022-10-16T14:58:53.800Z,1.17
2022-10-16T15:01:21.566Z,2.05
2022-10-16T15:03:49.551Z,1.85
2022-10-16T15:06:17.401Z,2.05
2022-10-16T15:08:45.167Z,2.33
2022-10-16T15:11:17.529Z,1.35
2022-10-16T15:13:44.867Z,1.20
2022-10-16T15:16:13.706Z,2.30
2022-10-16T15:18:40.926Z,1.83
2022-10-16T15:21:08.314Z,2.10
2022-10-16T15:23:35.544Z,2.67
2022-10-16T15:26:02.701Z,4.38
2022-10-16T15:28:29.999Z,3.15
2022-10-16T15:30:58.048Z,2.13
2022-10-16T15:33:38.686Z,3.42
2022-10-16T15:36:08.269Z,5.53
2022-10-16T15:38:37.777Z,2.13
2022-10-16T15:41:05.122Z,0.95
2022-10-16T15:43:32.308Z,1.67
2022-10-16T15:46:11.945Z,2.55
2022-10-16T15:48:39.291Z,2.20
2022-10-16T15:51:08.870Z,3.35
2022-10-16T15:53:36.883Z,1.58
2022-10-16T15:56:13.482Z,1.88
2022-10-16T15:58:41.148Z,2.03
2022-10-16T16:01:10.694Z,3.83
2022-10-16T16:03:41.454Z,2.28
2022-10-16T16:06:10.874Z,2.83
2022-10-16T16:08:38.367Z,3.30
2022-10-16T16:11:11.352Z,3.63
2022-10-16T16:13:39.371Z,2.97
2022-10-16T16:16:15.318Z,2.40
2022-10-16T16:18:43.258Z,2.55
2022-10-16T16:21:16.108Z,2.30
2022-10-16T16:23:45.437Z,1.60
2022-10-16T16:26:28.393Z,1.33
2022-10-16T16:28:56.677Z,3.55
2022-10-16T16:31:31.688Z,3.67
2022-10-16T16:33:59.369Z,1.33
2022-10-16T16:36:26.720Z,1.53
2022-10-16T16:38:53.845Z,2.63
2022-10-16T16:41:24.348Z,3.13
2022-10-16T16:43:54.300Z,2.22
2022-10-16T16:46:22.568Z,2.08
2022-10-16T16:48:51.348Z,1.98
2022-10-16T16:51:20.759Z,2.53
2022-10-16T16:53:51.194Z,2.33
2022-10-16T16:56:19.985Z,3.65
2022-10-16T16:58:48.611Z,2.13
2022-10-16T17:01:20.785Z,2.13
2022-10-16T17:03:51.440Z,3.87
2022-10-16T17:06:21.094Z,4.90
2022-10-16T17:08:49.656Z,5.07
2022-10-16T17:11:20.046Z,2.67
2022-10-16T17:13:49.915Z,2.40
2022-10-16T17:16:22.045Z,3.22
2022-10-16T17:18:49.562Z,2.83
2022-10-16T17:21:16.801Z,3.90
2022-10-16T17:23:44.086Z,5.65
2022-10-16T17:26:14.750Z,3.42
2022-10-16T17:28:42.716Z,4.13
2022-10-16T17:31:21.181Z,3.03
2022-10-16T17:33:48.658Z,3.88
2022-10-16T17:36:16.209Z,3.58
2022-10-16T17:38:43.675Z,3.45
2022-10-16T17:41:24.754Z,5.47
2022-10-16T17:43:52.494Z,3.40
2022-10-16T17:46:22.153Z,4.25
2022-10-16T17:48:51.194Z,3.10
2022-10-16T17:51:22.868Z,4.32
2022-10-16T17:53:54.427Z,4.95
2022-10-16T17:56:22.295Z,5.35
2022-10-16T17:58:53.277Z,3.85
2022-10-16T18:01:24.056Z,3.33
2022-10-16T18:03:56.484Z,4.78
2022-10-16T18:06:24.961Z,3.33
2022-10-16T18:08:53.494Z,3.17
2022-10-16T18:11:22.163Z,3.63
2022-10-16T18:13:56.022Z,4.68
2022-10-16T18:16:24.079Z,4.10
2022-10-16T18:18:51.601Z,3.15
2022-10-16T18:21:20.304Z,3.63
2022-10-16T18:23:51.776Z,5.97
2022-10-16T18:26:20.831Z,6.32
2022-10-16T18:28:48.463Z,6.80
2022-10-16T18:31:17.696Z,6.20
2022-10-16T18:33:50.729Z,6.90
2022-10-16T18:36:30.210Z,5.90
2022-10-16T18:38:58.855Z,8.30
2022-10-16T18:41:27.905Z,5.17
2022-10-16T18:43:57.474Z,5.07
2022-10-16T18:46:26.504Z,6.70
2022-10-16T18:48:55.861Z,7.18
2022-10-16T18:51:44.019Z,5.47
2022-10-16T18:54:12.682Z,6.20
2022-10-16T18:56:40.373Z,6.50
2022-10-16T18:59:13.724Z,7.53
2022-10-16T19:01:42.549Z,5.53
2022-10-16T19:04:15.778Z,5.57
2022-10-16T19:06:47.121Z,5.27
2022-10-16T19:09:16.132Z,6.33
2022-10-16T19:11:44.345Z,4.33
2022-10-16T19:14:13.669Z,3.67
2022-10-16T19:16:43.043Z,4.87
2022-10-16T19:19:16.068Z,5.37
2022-10-16T19:21:43.808Z,7.73
2022-10-16T19:24:15.012Z,7.17
2022-10-16T19:26:45.361Z,6.10
2022-10-16T19:29:12.778Z,7.43
2022-10-16T19:31:40.910Z,4.80
2022-10-16T19:34:10.338Z,6.47
2022-10-16T19:36:38.666Z,6.43
2022-10-16T19:39:15.988Z,4.70
2022-10-16T19:41:44.122Z,6.17
2022-10-16T19:44:14.463Z,5.73
2022-10-16T19:46:42.776Z,6.10
2022-10-16T19:49:12.348Z,5.27
2022-10-16T19:51:40.283Z,6.27
2022-10-16T19:54:11.465Z,4.67
2022-10-16T19:56:39.104Z,7.03
2022-10-16T19:59:07.831Z,5.50
2022-10-16T20:01:35.320Z,4.97
2022-10-16T20:04:02.709Z,4.20
2022-10-16T20:06:29.921Z,7.67
2022-10-16T20:08:59.639Z,5.30
2022-10-16T20:11:31.971Z,5.20
2022-10-16T20:13:59.882Z,5.47
2022-10-16T20:16:28.293Z,5.80
2022-10-16T20:18:55.941Z,3.97
2022-10-16T20:21:25.767Z,5.17
2022-10-16T20:23:53.329Z,6.33
2022-10-16T20:26:23.977Z,5.20
2022-10-16T20:28:51.801Z,6.37
2022-10-16T20:31:22.849Z,4.97
2022-10-16T20:33:54.596Z,5.80
2022-10-16T20:36:23.448Z,5.30
2022-10-16T20:38:51.126Z,4.93
2022-10-16T20:41:19.221Z,6.10
2022-10-16T20:43:48.466Z,5.27
2022-10-16T20:46:19.112Z,4.40
2022-10-16T20:48:47.390Z,3.93
2022-10-16T20:51:21.305Z,4.20
2022-10-16T20:53:54.230Z,5.77
2022-10-16T20:56:21.949Z,3.90
2022-10-16T20:58:49.611Z,4.83
2022-10-16T21:01:19.410Z,4.33
2022-10-16T21:03:54.421Z,5.57
2022-10-16T21:06:22.637Z,5.20
2022-10-16T21:08:50.186Z,6.33
2022-10-16T21:11:20.517Z,4.27
2022-10-16T21:13:48.373Z,4.70
2022-10-16T21:16:16.534Z,6.37
2022-10-16T21:18:44.906Z,5.40
2022-10-16T21:21:22.675Z,5.35
2022-10-16T21:23:50.817Z,5.13
2022-10-16T21:26:21.083Z,5.33
2022-10-16T21:28:50.519Z,7.50
2022-10-16T21:31:20.502Z,5.00
2022-10-16T21:33:50.577Z,5.57
2022-10-16T21:36:24.029Z,4.83
2022-10-16T21:38:51.781Z,4.57
2022-10-16T21:41:27.360Z,4.97
2022-10-16T21:43:56.143Z,6.53
2022-10-16T21:46:28.311Z,5.97
2022-10-16T21:49:00.740Z,4.67
2022-10-16T21:51:33.965Z,4.73
2022-10-16T21:54:07.711Z,8.63
2022-10-16T21:56:35.331Z,5.20
2022-10-16T21:59:03.072Z,5.10
2022-10-16T22:01:31.095Z,4.80
2022-10-16T22:03:58.800Z,5.10
2022-10-16T22:06:27.824Z,5.27
2022-10-16T22:08:59.790Z,5.15
2022-10-16T22:11:31.271Z,6.40
2022-10-16T22:13:58.517Z,7.80
2022-10-16T22:16:27.036Z,5.93
2022-10-16T22:18:59.512Z,5.83
2022-10-16T22:21:28.122Z,5.55
2022-10-16T22:23:55.668Z,4.57
2022-10-16T22:26:22.848Z,6.87
2022-10-16T22:28:52.229Z,7.80
2022-10-16T22:31:21.222Z,9.13
2022-10-16T22:33:48.470Z,7.97
2022-10-16T22:36:15.912Z,5.90
2022-10-16T22:38:43.131Z,6.50
2022-10-16T22:41:13.226Z,5.67
2022-10-16T22:43:50.624Z,8.10
2022-10-16T22:46:20.560Z,6.70
2022-10-16T22:48:47.845Z,6.43
2022-10-16T22:51:16.988Z,6.37
2022-10-16T22:53:46.615Z,6.70
2022-10-16T22:56:15.640Z,6.33
2022-10-16T22:58:43.490Z,7.60
2022-10-16T23:01:25.297Z,7.53
2022-10-16T23:03:52.579Z,6.88
2022-10-16T23:06:22.030Z,6.37
2022-10-16T23:08:53.997Z,6.20
2022-10-16T23:11:22.056Z,7.83
2022-10-16T23:13:49.578Z,7.30
2022-10-16T23:16:18.542Z,6.80
2022-10-16T23:18:47.006Z,5.87
2022-10-16T23:21:17.605Z,7.57
2022-10-16T23:23:54.125Z,6.80
2022-10-16T23:26:26.268Z,7.07
2022-10-16T23:28:55.592Z,5.57
2022-10-16T23:31:23.024Z,5.60
2022-10-16T23:33:50.424Z,6.77
2022-10-16T23:36:19.963Z,5.35
2022-10-16T23:38:56.236Z,6.23
2022-10-16T23:41:26.149Z,7.90
2022-10-16T23:43:55.682Z,5.33
2022-10-16T23:48:59.507Z,6.63
2022-10-16T23:51:26.841Z,5.55
2022-10-16T23:53:58.315Z,8.20
2022-10-16T23:56:25.485Z,5.53
2022-10-16T23:58:57.908Z,5.97
